Terminal Aerodrome Forecast
Issued by NWS Chicago, IL

Home | Current Version | Previous Version | Text Only | Print | Product List | Glossary On
Versions: 1 2 3 4 5 6 7 8 9 10 11 12 13 14 15 16 17 18 19 20 21 22 23 24 25 26 27 28 29 30 31 32
000
FTUS43 KLOT 211700
TAFRFD
TAF
KRFD 211731Z 2118/2218 34014G22KT P6SM BKN025
     FM212100 36013G18KT P6SM BKN025
     FM220100 01008KT P6SM FEW035
     FM220600 VRB03KT P6SM SKC=

USA.gov is the U.S. government's official web portal to all federal, state and local government web resources and services.